Time;durP1;ratioP1;P1;durP2;ratioP2;P2;SDS_P1;SDS_P2;PMS_P1;PMS_P2;Temp;Humidity;BMP_temperature;BMP_pressure;BME280_temperature;BME280_humidity;BME280_pressure;Samples;Min_cycle;Max_cycle;Signal;HPM_P1;HPM_P2
2021/12/14 00:01:48;;;;;;;23.60;9.30;;;6.50;99.20;;;;;;5006049;28;20021;-69
2021/12/14 00:04:19;;;;;;;22.45;8.43;;;6.50;99.20;;;;;;5021814;28;20372;-69
2021/12/14 00:06:47;;;;;;;19.95;8.40;;;6.50;99.10;;;;;;5022922;28;20028;-69
2021/12/14 00:09:23;;;;;;;20.48;7.32;;;6.50;99.20;;;;;;5021437;28;20254;-70
2021/12/14 00:12:06;;;;;;;20.08;8.27;;;6.40;99.30;;;;;;5022958;28;20018;-69
2021/12/14 00:17:18;;;;;;;19.48;7.72;;;6.50;99.20;;;;;;5022574;28;20041;-69
2021/12/14 00:19:44;;;;;;;21.10;9.05;;;6.50;99.10;;;;;;5022604;28;20021;-69
2021/12/14 00:24:55;;;;;;;21.35;8.18;;;6.50;99.10;;;;;;5021635;28;21174;-69
2021/12/14 00:27:22;;;;;;;21.08;8.50;;;6.50;99.00;;;;;;5021125;28;20099;-69
2021/12/14 00:29:53;;;;;;;20.00;8.48;;;6.40;99.00;;;;;;5022254;28;20037;-69
2021/12/14 00:32:20;;;;;;;22.30;8.13;;;6.40;99.00;;;;;;5022184;28;20018;-69
2021/12/14 00:34:47;;;;;;;18.95;8.50;;;6.40;99.00;;;;;;5021715;28;20025;-70
2021/12/14 00:37:28;;;;;;;18.85;8.50;;;6.40;99.10;;;;;;5022212;28;20018;-69
2021/12/14 00:39:54;;;;;;;22.10;9.43;;;6.30;99.10;;;;;;5022121;28;20028;-69
2021/12/14 00:42:21;;;;;;;19.98;8.38;;;6.30;99.30;;;;;;5021827;28;20049;-69
2021/12/14 00:44:47;;;;;;;22.20;10.30;;;6.30;99.20;;;;;;5021841;28;20029;-70
2021/12/14 00:47:13;;;;;;;23.15;8.35;;;6.40;99.10;;;;;;5021899;28;20056;-70
2021/12/14 00:49:39;;;;;;;21.92;9.82;;;6.30;99.20;;;;;;5022060;28;20349;-68
2021/12/14 00:52:05;;;;;;;19.10;8.05;;;6.30;99.30;;;;;;5020520;28;20021;-69
2021/12/14 00:54:32;;;;;;;20.92;8.48;;;6.30;99.20;;;;;;5020640;28;20029;-69
2021/12/14 00:56:57;;;;;;;18.10;8.63;;;6.20;99.20;;;;;;5020842;28;20021;-69
2021/12/14 00:59:23;;;;;;;20.07;8.83;;;6.30;99.20;;;;;;5020772;28;20030;-69
2021/12/14 01:01:59;;;;;;;18.92;8.05;;;6.30;99.20;;;;;;5022067;28;20040;-68
2021/12/14 01:04:30;;;;;;;16.23;7.43;;;6.40;99.10;;;;;;5022976;28;20032;-68
2021/12/14 01:06:56;;;;;;;21.77;8.68;;;6.40;98.90;;;;;;5026187;28;20029;-68
2021/12/14 01:09:27;;;;;;;17.93;7.73;;;6.30;98.90;;;;;;5025745;28;20013;-68
2021/12/14 01:11:53;;;;;;;16.02;8.60;;;6.40;98.90;;;;;;5025895;28;20040;-68
2021/12/14 01:14:32;;;;;;;16.92;7.97;;;6.40;98.70;;;;;;5025277;28;20022;-68
2021/12/14 01:17:11;;;;;;;23.20;8.80;;;6.40;98.70;;;;;;5025360;28;20329;-68
2021/12/14 01:19:41;;;;;;;20.67;8.95;;;6.40;98.70;;;;;;5025640;28;20085;-68
2021/12/14 01:25:18;;;;;;;21.38;8.15;;;6.20;99.10;;;;;;5037637;28;20036;-68
2021/12/14 01:27:59;;;;;;;19.40;8.85;;;6.30;99.00;;;;;;5010244;28;20029;-68
2021/12/14 01:31:18;;;;;;;21.88;9.15;;;6.30;99.00;;;;;;5025656;28;20029;-68
2021/12/14 01:33:51;;;;;;;19.20;8.50;;;6.30;99.00;;;;;;5024497;28;20061;-68
2021/12/14 01:36:36;;;;;;;21.98;8.43;;;6.30;99.10;;;;;;5025200;28;20313;-68
2021/12/14 01:42:08;;;;;;;21.13;9.75;;;6.30;99.20;;;;;;5025010;28;20049;-68
2021/12/14 01:44:41;;;;;;;19.50;8.57;;;6.30;99.10;;;;;;5024198;28;20212;-69
2021/12/14 01:47:18;;;;;;;21.70;9.65;;;6.20;99.10;;;;;;5025179;28;20018;-68
2021/12/14 01:49:44;;;;;;;;;;;6.20;99.30;;;;;;5025726;28;20101;-68
2021/12/14 01:52:20;;;;;;;21.48;9.73;;;6.20;99.30;;;;;;5025020;28;20011;-68
2021/12/14 01:54:50;;;;;;;20.42;10.00;;;6.20;99.40;;;;;;5023895;28;20029;-68
2021/12/14 01:57:18;;;;;;;20.92;9.65;;;6.20;99.40;;;;;;5024827;28;20026;-69
2021/12/14 01:59:45;;;;;;;21.63;9.23;;;6.20;99.30;;;;;;5024013;28;20025;-68
2021/12/14 02:04:45;;;;;;;20.98;7.50;;;6.20;99.50;;;;;;5024671;28;19906;-68
2021/12/14 02:07:12;;;;;;;21.95;8.80;;;6.30;99.40;;;;;;5023676;28;20033;-68
2021/12/14 02:09:38;;;;;;;19.77;8.48;;;6.30;99.30;;;;;;5023673;28;20029;-68
2021/12/14 02:12:27;;;;;;;15.68;6.32;;;6.30;99.00;;;;;;5024544;28;20034;-68
2021/12/14 02:14:53;;;;;;;13.95;6.10;;;6.20;99.10;;;;;;5022411;28;20094;-68
2021/12/14 02:17:22;;;;;;;11.90;6.20;;;6.20;99.10;;;;;;5023720;28;20032;-68
2021/12/14 02:19:49;;;;;;;10.68;4.95;;;6.10;99.10;;;;;;5024614;28;20026;-68
2021/12/14 02:22:15;;;;;;;11.10;5.68;;;6.10;99.10;;;;;;5024605;28;20071;-68
2021/12/14 02:24:45;;;;;;;10.03;4.97;;;6.10;99.10;;;;;;5024204;28;20325;-68
2021/12/14 02:27:11;;;;;;;12.00;4.82;;;6.10;99.10;;;;;;5023473;28;20386;-68
2021/12/14 02:29:40;;;;;;;8.47;4.27;;;6.10;99.20;;;;;;5024414;28;20049;-68
2021/12/14 02:32:13;;;;;;;12.35;5.43;;;6.10;99.10;;;;;;5023909;28;20032;-69
2021/12/14 02:34:45;;;;;;;8.85;4.10;;;6.00;99.10;;;;;;5023910;28;20025;-68
2021/12/14 02:37:13;;;;;;;10.07;4.57;;;5.90;99.40;;;;;;5024177;28;20018;-68
2021/12/14 02:42:10;;;;;;;9.47;5.17;;;5.90;99.50;;;;;;5024063;28;20021;-68
2021/12/14 02:44:37;;;;;;;11.45;5.22;;;5.90;99.50;;;;;;5022518;28;20328;-68
2021/12/14 02:47:11;;;;;;;9.18;4.40;;;5.90;99.50;;;;;;5024226;28;20221;-68
2021/12/14 02:49:37;;;;;;;10.02;4.43;;;5.80;99.10;;;;;;5023685;28;20029;-68
2021/12/14 02:52:20;;;;;;;7.55;3.97;;;5.80;99.20;;;;;;5023441;28;20066;-68
2021/12/14 02:54:49;;;;;;;8.57;3.50;;;5.80;99.10;;;;;;5021498;28;20047;-68
2021/12/14 02:57:21;;;;;;;8.40;4.18;;;5.80;99.00;;;;;;5038352;28;20022;-68
2021/12/14 02:59:48;;;;;;;6.50;3.35;;;5.80;98.80;;;;;;5038279;28;20025;-68
2021/12/14 03:02:30;;;;;;;5.13;2.70;;;5.70;98.50;;;;;;5023580;28;20021;-68
2021/12/14 03:05:09;;;;;;;4.78;2.95;;;5.60;98.60;;;;;;5036772;28;20068;-68
2021/12/14 03:07:43;;;;;;;6.80;3.20;;;5.60;98.60;;;;;;5023564;28;20025;-68
2021/12/14 03:12:52;;;;;;;5.43;2.97;;;5.50;98.60;;;;;;5023658;28;20022;-68
2021/12/14 03:15:28;;;;;;;4.97;3.13;;;5.50;98.70;;;;;;5023039;28;20033;-68
2021/12/14 03:17:57;;;;;;;5.78;3.15;;;5.50;98.70;;;;;;5037979;28;20038;-68
2021/12/14 03:20:29;;;;;;;9.10;4.40;;;5.50;98.70;;;;;;5023440;28;20045;-68
2021/12/14 03:23:12;;;;;;;7.32;3.38;;;5.50;98.60;;;;;;5023282;28;20064;-68
2021/12/14 03:25:42;;;;;;;8.32;3.85;;;5.50;98.50;;;;;;5022543;28;20048;-67
2021/12/14 03:28:08;;;;;;;9.75;4.65;;;5.40;98.70;;;;;;5022766;28;20037;-68
2021/12/14 03:30:50;;;;;;;8.50;4.47;;;5.40;98.80;;;;;;5005867;28;20038;-68
2021/12/14 03:33:23;;;;;;;12.32;5.90;;;5.40;98.80;;;;;;5023076;28;20033;-68
2021/12/14 03:36:00;;;;;;;7.82;4.07;;;5.50;98.60;;;;;;5022802;28;20018;-68
2021/12/14 03:38:34;;;;;;;8.63;4.95;;;5.40;98.30;;;;;;5023100;28;20037;-68
2021/12/14 03:41:14;;;;;;;7.20;4.13;;;5.40;98.50;;;;;;5022698;28;20206;-67
2021/12/14 03:44:09;;;;;;;10.18;4.55;;;5.30;98.60;;;;;;5021935;28;20083;-67
2021/12/14 03:46:49;;;;;;;9.90;5.57;;;5.40;98.70;;;;;;5022779;28;20029;-67
2021/12/14 03:49:15;;;;;;;10.60;5.43;;;5.40;98.60;;;;;;5021820;28;20064;-67
2021/12/14 03:51:41;;;;;;;8.98;4.97;;;5.40;98.70;;;;;;5021860;28;20188;-67
2021/12/14 03:54:07;;;;;;;8.75;3.95;;;5.30;98.70;;;;;;5022347;28;20058;-67
2021/12/14 03:56:33;;;;;;;9.27;4.50;;;5.30;98.30;;;;;;5022413;28;20032;-67
2021/12/14 03:58:59;;;;;;;11.27;5.38;;;5.40;98.30;;;;;;5021924;28;20025;-67
2021/12/14 04:01:31;;;;;;;11.20;5.13;;;5.20;98.50;;;;;;5022512;28;20025;-67
2021/12/14 04:04:10;;;;;;;9.73;4.63;;;5.20;98.50;;;;;;5022464;28;20088;-67
2021/12/14 04:06:37;;;;;;;13.18;5.55;;;5.20;98.80;;;;;;5022450;28;20366;-67
2021/12/14 04:09:04;;;;;;;;;;;5.10;98.80;;;;;;5021775;28;20029;-67
2021/12/14 04:11:32;;;;;;;9.50;4.90;;;5.00;98.90;;;;;;5022639;28;19905;-67
2021/12/14 04:13:58;;;;;;;7.07;3.88;;;5.00;98.80;;;;;;5022261;28;20277;-68
2021/12/14 04:16:24;;;;;;;12.80;4.77;;;4.90;98.90;;;;;;5021842;28;20390;-68
2021/12/14 04:18:50;;;;;;;9.25;3.72;;;4.90;99.00;;;;;;5022286;28;20022;-68
2021/12/14 04:21:16;;;;;;;4.70;2.28;;;4.80;98.70;;;;;;5022549;28;20040;-68
2021/12/14 04:23:45;;;;;;;6.43;3.15;;;4.80;98.50;;;;;;5022194;28;20102;-67
2021/12/14 04:26:12;;;;;;;8.25;2.75;;;4.80;98.60;;;;;;5021105;28;20017;-67
2021/12/14 04:28:57;;;;;;;;;;;4.80;98.50;;;;;;5005352;28;20050;-67
2021/12/14 04:31:23;;;;;;;6.00;2.88;;;4.80;98.40;;;;;;5022385;28;19912;-68
2021/12/14 04:33:49;;;;;;;6.43;3.10;;;4.70;98.40;;;;;;5021078;28;20068;-67
2021/12/14 04:36:20;;;;;;;6.57;3.17;;;4.80;98.80;;;;;;5021946;28;20265;-68
2021/12/14 04:52:42;;;;;;;6.38;2.92;;;5.10;98.10;;;;;;5020939;28;20355;-67
2021/12/14 04:55:09;;;;;;;9.52;3.60;;;5.00;98.20;;;;;;5021415;28;20037;-67
2021/12/14 04:57:46;;;;;;;8.35;4.35;;;4.90;98.50;;;;;;5021521;28;20037;-67
2021/12/14 05:00:34;;;;;;;8.73;3.33;;;4.90;98.60;;;;;;5021756;28;20026;-67
2021/12/14 05:03:02;;;;;;;8.52;4.07;;;4.90;98.70;;;;;;5019718;28;20167;-68
2021/12/14 05:05:32;;;;;;;8.75;3.63;;;4.90;98.80;;;;;;5021419;28;20026;-67
2021/12/14 05:10:38;;;;;;;8.88;4.22;;;4.90;98.70;;;;;;5021696;28;20022;-67
2021/12/14 05:13:04;;;;;;;9.77;4.35;;;4.90;98.80;;;;;;5021675;28;20056;-68
2021/12/14 05:15:30;;;;;;;11.93;4.43;;;4.90;98.80;;;;;;5021261;28;20544;-68
2021/12/14 05:17:55;;;;;;;9.57;4.43;;;4.90;98.80;;;;;;5021422;28;20098;-68
2021/12/14 05:20:21;;;;;;;11.05;4.10;;;4.90;98.70;;;;;;5021571;28;20201;-68
2021/12/14 05:22:47;;;;;;;9.40;4.00;;;4.90;98.80;;;;;;5021617;28;20033;-67
2021/12/14 05:25:21;;;;;;;11.38;3.70;;;5.00;98.90;;;;;;5021268;28;20022;-67
2021/12/14 05:27:53;;;;;;;9.95;4.55;;;5.00;98.90;;;;;;5020729;28;20025;-67
2021/12/14 05:30:38;;;;;;;13.55;5.05;;;4.90;98.80;;;;;;5020223;28;20026;-67
2021/12/14 05:33:07;;;;;;;10.93;4.90;;;5.00;98.80;;;;;;5021070;28;20255;-67
2021/12/14 05:35:33;;;;;;;12.15;4.80;;;4.90;98.90;;;;;;5019901;28;20236;-67
2021/12/14 05:38:01;;;;;;;12.00;5.05;;;4.90;99.00;;;;;;5021235;28;20025;-67
2021/12/14 05:43:07;;;;;;;8.85;4.22;;;4.90;98.70;;;;;;5021466;28;20026;-66
2021/12/14 05:45:37;;;;;;;13.20;4.97;;;4.90;98.60;;;;;;5021044;28;20022;-66
2021/12/14 05:48:04;;;;;;;13.52;4.75;;;4.90;98.80;;;;;;5021083;28;20032;-66
2021/12/14 05:50:43;;;;;;;11.82;4.90;;;4.90;98.70;;;;;;5021655;28;20080;-66
2021/12/14 05:53:09;;;;;;;10.43;4.95;;;5.00;98.80;;;;;;5024873;28;20033;-66
2021/12/14 05:55:39;;;;;;;9.95;4.03;;;4.90;98.50;;;;;;5027190;28;20017;-68
2021/12/14 05:58:11;;;;;;;9.48;3.90;;;4.90;98.70;;;;;;5026091;28;20017;-66
2021/12/14 06:00:37;;;;;;;9.30;3.72;;;4.90;98.60;;;;;;5024666;28;20026;-66
2021/12/14 06:03:04;;;;;;;6.85;3.28;;;4.80;98.40;;;;;;5022982;28;20021;-66
2021/12/14 06:05:30;;;;;;;7.32;3.67;;;4.90;98.40;;;;;;5023591;28;20093;-67
2021/12/14 06:07:56;;;;;;;8.60;3.25;;;4.90;98.40;;;;;;5025761;28;20033;-66
2021/12/14 06:10:23;;;;;;;9.05;3.75;;;4.90;98.20;;;;;;5025210;28;20378;-66
2021/12/14 06:12:49;;;;;;;;;;;4.80;98.50;;;;;;5025674;28;20045;-67
2021/12/14 06:15:22;;;;;;;8.02;3.70;;;4.90;98.30;;;;;;5040209;28;19909;-66
2021/12/14 06:17:48;;;;;;;9.77;4.40;;;4.80;98.30;;;;;;5024935;28;20028;-67
2021/12/14 06:20:20;;;;;;;11.65;4.00;;;4.80;98.50;;;;;;5024111;28;20067;-66
2021/12/14 06:22:47;;;;;;;9.73;4.30;;;4.80;98.40;;;;;;5025212;28;20030;-67
2021/12/14 06:25:20;;;;;;;9.05;3.95;;;4.90;98.40;;;;;;5024511;28;20308;-67
2021/12/14 06:27:46;;;;;;;11.77;4.57;;;4.90;98.20;;;;;;5023743;28;20089;-66
2021/12/14 06:30:19;;;;;;;9.40;4.07;;;4.80;98.30;;;;;;5024802;28;20025;-67
2021/12/14 06:32:55;;;;;;;8.13;3.67;;;4.80;98.10;;;;;;5024793;28;20076;-66
2021/12/14 06:35:41;;;;;;;8.60;3.00;;;4.80;98.10;;;;;;5024456;28;20352;-66
2021/12/14 06:40:52;;;;;;;6.50;2.58;;;4.80;98.10;;;;;;5023605;28;20076;-66
2021/12/14 06:43:23;;;;;;;5.95;2.50;;;4.80;98.00;;;;;;5024515;28;20026;-66
2021/12/14 06:45:55;;;;;;;2.65;1.40;;;4.80;97.70;;;;;;5024580;28;20233;-66
2021/12/14 06:48:25;;;;;;;4.20;2.40;;;4.80;97.90;;;;;;5024540;28;20037;-66
2021/12/14 06:51:04;;;;;;;5.55;2.45;;;4.60;98.10;;;;;;5024646;28;20030;-66
2021/12/14 06:53:30;;;;;;;7.38;1.98;;;4.70;98.00;;;;;;5024766;28;20088;-69
2021/12/14 06:55:58;;;;;;;5.63;2.70;;;4.70;98.10;;;;;;5024016;28;20072;-66
2021/12/14 06:58:29;;;;;;;5.95;2.22;;;4.60;98.00;;;;;;5024234;28;20045;-67
2021/12/14 07:01:24;;;;;;;7.78;3.63;;;4.60;97.90;;;;;;5024602;28;20212;-67
2021/12/14 07:04:03;;;;;;;6.53;2.53;;;4.50;98.10;;;;;;5025267;28;20029;-73
2021/12/14 07:06:38;;;;;;;6.95;3.30;;;4.50;98.30;;;;;;5022247;28;20018;-67
2021/12/14 07:09:25;;;;;;;8.77;3.85;;;4.50;98.60;;;;;;5024349;28;20030;-67
2021/12/14 07:12:00;;;;;;;8.52;3.47;;;4.50;98.50;;;;;;5024422;28;20025;-67
2021/12/14 07:14:32;;;;;;;10.98;3.65;;;4.50;98.40;;;;;;5034790;28;20030;-67
2021/12/14 07:17:15;;;;;;;11.10;4.15;;;4.50;98.70;;;;;;5043994;28;20063;-68
2021/12/14 07:20:03;;;;;;;7.18;3.38;;;4.50;98.70;;;;;;5044086;28;20018;-67
2021/12/14 07:22:45;;;;;;;7.77;3.57;;;4.50;98.50;;;;;;5043597;28;20041;-67
2021/12/14 07:25:24;;;;;;;6.95;2.95;;;4.60;98.50;;;;;;5043423;28;20360;-67
2021/12/14 07:28:00;;;;;;;10.43;3.70;;;4.60;98.50;;;;;;5038352;28;20105;-67
2021/12/14 07:30:38;;;;;;;8.98;3.55;;;4.70;98.10;;;;;;5024051;28;20346;-67
2021/12/14 07:33:05;;;;;;;;;;;4.70;98.20;;;;;;5024407;28;20030;-68
2021/12/14 07:35:40;;;;;;;5.90;3.55;;;4.70;98.10;;;;;;5023725;28;19905;-67
2021/12/14 07:38:30;;;;;;;9.85;3.67;;;4.80;97.80;;;;;;5023910;28;20026;-67
2021/12/14 07:41:18;;;;;;;10.50;2.97;;;4.80;97.70;;;;;;5023800;28;20022;-67
2021/12/14 07:44:14;;;;;;;6.95;3.10;;;4.70;97.60;;;;;;5023579;28;20028;-67
2021/12/14 07:47:14;;;;;;;6.40;2.63;;;4.70;97.80;;;;;;5023692;28;20033;-67
2021/12/14 07:49:55;;;;;;;8.82;3.88;;;4.70;98.00;;;;;;5021655;28;20080;-67
2021/12/14 07:52:47;;;;;;;7.80;3.58;;;4.70;98.00;;;;;;5021532;28;20026;-67
2021/12/14 07:55:19;;;;;;;8.27;3.58;;;4.60;98.20;;;;;;5022239;28;20324;-68
2021/12/14 07:57:46;;;;;;;6.28;3.67;;;4.60;98.40;;;;;;5022777;28;20037;-67
2021/12/14 08:00:21;;;;;;;9.73;3.80;;;4.70;98.60;;;;;;5023608;28;20048;-67
2021/12/14 08:02:55;;;;;;;11.18;3.72;;;4.80;98.10;;;;;;5023304;28;20060;-67
2021/12/14 08:05:43;;;;;;;9.02;3.90;;;4.80;97.90;;;;;;5022986;28;20032;-67
2021/12/14 08:08:31;;;;;;;7.50;3.13;;;4.80;97.70;;;;;;5022370;28;20047;-68
2021/12/14 08:11:16;;;;;;;;;;;4.80;97.90;;;;;;5023790;28;20022;-68
2021/12/14 08:13:44;;;;;;;7.97;2.90;;;4.90;97.70;;;;;;5023280;28;20141;-67
2021/12/14 08:16:10;;;;;;;9.95;3.80;;;4.90;97.70;;;;;;5022685;28;20317;-68
2021/12/14 08:18:37;;;;;;;10.05;3.58;;;4.90;97.60;;;;;;5023001;28;20052;-68
2021/12/14 08:21:09;;;;;;;7.85;3.78;;;4.90;97.50;;;;;;5022887;28;20285;-68
2021/12/14 08:24:04;;;;;;;7.82;3.22;;;5.00;97.50;;;;;;5022564;28;20022;-67
2021/12/14 08:26:41;;;;;;;9.43;3.97;;;4.90;97.40;;;;;;5021912;28;20053;-67
2021/12/14 08:29:16;;;;;;;23.15;9.68;;;4.90;97.70;;;;;;5022780;28;20034;-69
2021/12/14 08:31:54;;;;;;;15.43;5.60;;;4.90;97.70;;;;;;5024073;28;20041;-68
2021/12/14 08:34:23;;;;;;;;;;;5.00;97.50;;;;;;5023005;28;20026;-68
2021/12/14 08:36:59;;;;;;;9.73;3.78;;;5.00;97.20;;;;;;5023342;28;19912;-68
2021/12/14 08:39:50;;;;;;;7.95;3.00;;;5.00;97.40;;;;;;5022674;28;20089;-68
2021/12/14 08:42:30;;;;;;;9.23;4.45;;;5.00;97.50;;;;;;5022810;28;20021;-67
2021/12/14 08:44:59;;;;;;;6.53;3.95;;;5.00;97.50;;;;;;5036596;28;20049;-68
2021/12/14 08:47:35;;;;;;;7.43;3.47;;;5.00;97.60;;;;;;5022672;28;20021;-68
2021/12/14 08:50:08;;;;;;;8.60;3.65;;;4.90;97.90;;;;;;5022559;28;20026;-68
2021/12/14 08:52:34;;;;;;;8.93;3.78;;;4.90;97.90;;;;;;5022368;28;20029;-68
2021/12/14 08:55:01;;;;;;;9.88;4.25;;;5.00;98.00;;;;;;5021125;28;20025;-68
2021/12/14 08:57:28;;;;;;;9.20;4.20;;;4.90;98.20;;;;;;5022655;28;20030;-68
2021/12/14 08:59:56;;;;;;;;;;;5.00;97.90;;;;;;5003256;28;20027;-68
2021/12/14 09:02:23;;;;;;;8.87;4.17;;;5.00;97.80;;;;;;5002781;28;19914;-68
2021/12/14 09:05:07;;;;;;;7.32;3.95;;;5.10;97.60;;;;;;5002526;28;20257;-68
2021/12/14 09:07:33;;;;;;;10.70;3.83;;;5.10;97.70;;;;;;5002966;28;20014;-67
2021/12/14 09:09:59;;;;;;;12.33;4.97;;;5.10;97.70;;;;;;5021844;28;20017;-67
2021/12/14 09:12:39;;;;;;;10.15;4.40;;;5.20;97.80;;;;;;5021903;28;20312;-67
2021/12/14 09:15:10;;;;;;;10.98;4.75;;;5.10;97.70;;;;;;5021747;28;20044;-68
2021/12/14 09:17:36;;;;;;;12.70;4.97;;;5.10;97.70;;;;;;5021976;28;20026;-68
2021/12/14 09:20:08;;;;;;;13.17;4.90;;;5.10;98.00;;;;;;5004619;28;20022;-68
2021/12/14 09:22:41;;;;;;;11.68;4.40;;;5.10;98.10;;;;;;5021752;28;20075;-68
2021/12/14 09:25:19;;;;;;;12.32;4.65;;;5.00;98.10;;;;;;5022342;28;20092;-68
2021/12/14 09:27:45;;;;;;;11.43;5.13;;;5.20;98.10;;;;;;5024992;28;20076;-68
2021/12/14 09:30:15;;;;;;;15.07;5.40;;;5.20;97.70;;;;;;5025848;28;20048;-67
2021/12/14 09:32:42;;;;;;;13.32;5.57;;;5.20;97.70;;;;;;5025826;28;20278;-67
2021/12/14 09:35:13;;;;;;;;;;;5.20;97.60;;;;;;5025868;28;20061;-68
2021/12/14 09:37:38;;;;;;;11.35;5.25;;;5.20;97.70;;;;;;5024552;28;19906;-67
2021/12/14 09:40:14;;;;;;;16.17;6.37;;;5.20;97.80;;;;;;5025726;28;20100;-67
2021/12/14 09:42:39;;;;;;;14.55;5.28;;;5.20;97.90;;;;;;5025356;28;20017;-67
2021/12/14 09:45:17;;;;;;;13.57;5.80;;;5.20;97.90;;;;;;5024228;28;20072;-68
2021/12/14 09:47:43;;;;;;;11.77;5.25;;;5.20;98.00;;;;;;5024402;28;20072;-68
2021/12/14 09:50:19;;;;;;;15.27;5.68;;;5.30;97.70;;;;;;5025439;28;20022;-67
2021/12/14 09:52:47;;;;;;;11.95;5.22;;;5.30;97.50;;;;;;5005506;28;20076;-67
2021/12/14 09:55:17;;;;;;;17.20;6.38;;;5.40;97.60;;;;;;5005285;28;20026;-67
2021/12/14 09:57:47;;;;;;;12.98;6.25;;;5.40;97.60;;;;;;5005187;28;20194;-67
2021/12/14 10:00:31;;;;;;;15.57;7.00;;;5.50;97.60;;;;;;5005439;28;20022;-68
2021/12/14 10:02:58;;;;;;;14.90;5.50;;;5.60;97.30;;;;;;5004528;28;20320;-67
2021/12/14 10:05:38;;;;;;;14.18;5.25;;;5.60;97.10;;;;;;5005655;28;20080;-68
2021/12/14 10:08:14;;;;;;;14.73;6.00;;;5.60;97.20;;;;;;5005990;28;20045;-68
2021/12/14 10:10:43;;;;;;;12.45;5.32;;;5.60;97.30;;;;;;5018510;28;20433;-68
2021/12/14 10:13:09;;;;;;;19.75;5.40;;;5.60;97.30;;;;;;5023933;28;20034;-68
2021/12/14 10:15:40;;;;;;;16.97;6.23;;;5.60;97.30;;;;;;5025029;28;20140;-68
2021/12/14 10:18:21;;;;;;;13.90;5.18;;;5.60;97.40;;;;;;5025599;28;20093;-68
2021/12/14 10:20:54;;;;;;;13.43;5.47;;;5.80;97.10;;;;;;5025175;28;20049;-68
2021/12/14 10:23:21;;;;;;;11.35;5.75;;;5.80;97.00;;;;;;5025261;28;20190;-68
2021/12/14 10:25:47;;;;;;;13.95;5.47;;;5.80;96.90;;;;;;5024625;28;20037;-68
2021/12/14 10:28:13;;;;;;;17.80;5.57;;;5.80;96.90;;;;;;5024484;28;20026;-68
2021/12/14 10:30:54;;;;;;;40.88;19.13;;;5.80;96.80;;;;;;5024949;28;20088;-68
2021/12/14 10:33:20;;;;;;;19.77;8.48;;;5.90;96.90;;;;;;5023930;28;20038;-68
2021/12/14 10:35:50;;;;;;;22.45;10.20;;;5.70;97.00;;;;;;5024380;28;20064;-68
2021/12/14 10:38:28;;;;;;;22.77;9.15;;;5.90;97.00;;;;;;5023870;28;20033;-68
2021/12/14 10:43:56;;;;;;;17.33;6.07;;;6.00;96.70;;;;;;5005081;28;20084;-67
2021/12/14 10:46:26;;;;;;;16.73;5.87;;;6.00;96.50;;;;;;5004870;28;20030;-68
2021/12/14 10:48:52;;;;;;;18.35;7.15;;;6.10;96.50;;;;;;5028269;28;20022;-68
2021/12/14 10:51:21;;;;;;;17.10;6.60;;;6.00;96.60;;;;;;5044656;28;20232;-68
2021/12/14 10:53:48;;;;;;;17.15;6.90;;;6.10;96.60;;;;;;5044332;28;20025;-68
2021/12/14 10:56:20;;;;;;;;;;;6.10;96.30;;;;;;5044668;28;20040;-68
2021/12/14 10:58:50;;;;;;;15.45;6.72;;;6.10;96.30;;;;;;5025430;28;20185;-68
2021/12/14 11:01:19;;;;;;;19.88;6.10;;;6.10;96.50;;;;;;5024199;28;20030;-67
2021/12/14 11:03:49;;;;;;;17.40;6.75;;;6.10;96.50;;;;;;5024595;28;20022;-68
2021/12/14 11:06:22;;;;;;;15.77;6.25;;;6.10;96.40;;;;;;5024115;28;20022;-68
2021/12/14 11:11:55;;;;;;;20.55;6.78;;;6.10;96.70;;;;;;5023643;28;20084;-68
2021/12/14 11:14:25;;;;;;;16.15;5.95;;;6.10;96.70;;;;;;5024008;28;20328;-67
2021/12/14 11:19:51;;;;;;;18.42;8.00;;;6.10;96.80;;;;;;5024213;28;20060;-67
2021/12/14 11:22:21;;;;;;;19.60;6.90;;;6.10;96.80;;;;;;5024203;28;20029;-67
2021/12/14 11:24:53;;;;;;;18.67;6.80;;;6.10;96.80;;;;;;5024079;28;20022;-67
2021/12/14 11:27:27;;;;;;;18.45;7.03;;;6.20;96.70;;;;;;5023777;28;20029;-67
2021/12/14 11:30:20;;;;;;;19.10;7.43;;;6.20;96.40;;;;;;5023379;28;20017;-64
2021/12/14 11:33:31;;;;;;;16.27;7.05;;;6.30;97.10;;;;;;5023948;28;20085;-66
2021/12/14 11:36:12;;;;;;;20.50;6.72;;;6.30;96.80;;;;;;5037972;28;20025;-64
2021/12/14 11:39:01;;;;;;;15.80;7.50;;;6.30;96.60;;;;;;5043125;28;20021;-65
2021/12/14 11:41:53;;;;;;;19.83;7.82;;;6.30;96.70;;;;;;5043682;28;20021;-66
2021/12/14 11:44:35;;;;;;;20.65;7.65;;;6.30;96.90;;;;;;5043051;28;20075;-66
2021/12/14 11:50:23;;;;;;;22.30;9.82;;;6.30;96.60;;;;;;5043341;28;20017;-65
2021/12/14 11:53:03;;;;;;;27.00;11.10;;;6.20;97.10;;;;;;5043312;28;20036;-65
2021/12/14 11:55:43;;;;;;;21.75;8.20;;;6.30;97.00;;;;;;5043163;28;20236;-65
2021/12/14 11:58:13;;;;;;;21.27;7.60;;;6.30;97.20;;;;;;5039085;28;20021;-66
2021/12/14 12:00:43;;;;;;;23.33;7.63;;;6.20;97.30;;;;;;5023347;28;20018;-66
2021/12/14 12:03:49;;;;;;;19.58;7.65;;;6.20;97.30;;;;;;5023514;28;20032;-65
2021/12/14 12:09:35;;;;;;;21.02;7.43;;;6.30;97.30;;;;;;5022123;28;20038;-66
2021/12/14 12:12:04;;;;;;;24.05;8.57;;;6.30;97.10;;;;;;5021199;28;20071;-65
2021/12/14 12:14:51;;;;;;;22.33;8.00;;;6.30;97.10;;;;;;5021706;28;20080;-66
2021/12/14 12:17:41;;;;;;;23.77;8.33;;;6.30;97.10;;;;;;5028924;28;20017;-66
2021/12/14 12:20:47;;;;;;;22.42;7.85;;;6.30;97.10;;;;;;5025073;28;20215;-65
2021/12/14 12:23:26;;;;;;;21.02;7.43;;;6.30;97.10;;;;;;5041635;28;20037;-66
2021/12/14 12:26:07;;;;;;;22.52;8.10;;;6.40;97.10;;;;;;5041508;28;20328;-66
2021/12/14 12:28:38;;;;;;;18.63;7.95;;;6.40;97.10;;;;;;5033810;28;20026;-66
2021/12/14 12:31:14;;;;;;;22.10;8.73;;;6.50;97.00;;;;;;5031730;28;20053;-66
2021/12/14 12:33:54;;;;;;;21.35;6.90;;;6.50;96.70;;;;;;5038135;28;20025;-66
2021/12/14 12:36:43;;;;;;;17.27;7.70;;;6.50;96.90;;;;;;5037239;28;20072;-65
2021/12/14 12:39:15;;;;;;;19.13;6.97;;;6.50;97.10;;;;;;5041220;28;20508;-65
2021/12/14 12:41:51;;;;;;;21.48;7.47;;;6.50;97.10;;;;;;5041407;28;20029;-65
2021/12/14 12:44:28;;;;;;;26.10;7.93;;;6.60;97.10;;;;;;5039786;28;20071;-65
2021/12/14 12:47:16;;;;;;;18.13;7.00;;;6.60;97.20;;;;;;5041492;28;20032;-65
2021/12/14 12:49:55;;;;;;;17.58;7.25;;;6.50;97.30;;;;;;5041392;28;20040;-65
2021/12/14 12:52:30;;;;;;;21.73;7.93;;;6.30;97.60;;;;;;5041519;28;20033;-66
2021/12/14 12:54:57;;;;;;;24.80;10.43;;;6.40;97.80;;;;;;5041492;28;20018;-66
2021/12/14 12:57:34;;;;;;;29.58;11.38;;;6.40;97.80;;;;;;5041707;28;20261;-66
2021/12/14 13:00:20;;;;;;;30.08;9.15;;;6.40;97.90;;;;;;5021022;28;20125;-66
2021/12/14 13:02:51;;;;;;;34.28;11.15;;;6.40;98.00;;;;;;5021786;28;20209;-66
2021/12/14 13:05:31;;;;;;;23.75;7.78;;;6.40;97.80;;;;;;5021209;28;20170;-66
2021/12/14 13:08:10;;;;;;;22.55;8.73;;;6.50;97.80;;;;;;5021673;28;20097;-66
2021/12/14 13:10:42;;;;;;;19.85;7.47;;;6.50;97.90;;;;;;5021481;28;20041;-66
2021/12/14 13:13:50;;;;;;;24.17;7.72;;;6.50;97.70;;;;;;5021258;28;20121;-65
2021/12/14 13:16:26;;;;;;;23.42;9.40;;;6.50;97.80;;;;;;5001670;28;20066;-66
2021/12/14 13:19:00;;;;;;;25.42;9.60;;;6.50;97.90;;;;;;5001784;28;20022;-66
2021/12/14 13:21:45;;;;;;;21.77;8.57;;;6.50;97.90;;;;;;5000421;28;20034;-66
2021/12/14 13:24:29;;;;;;;23.48;8.45;;;6.50;98.10;;;;;;5001626;28;20026;-65
2021/12/14 13:27:01;;;;;;;26.52;9.65;;;6.50;98.00;;;;;;5001793;28;20030;-65
2021/12/14 13:29:56;;;;;;;26.20;11.30;;;6.40;98.20;;;;;;5010116;28;20049;-65
2021/12/14 13:32:35;;;;;;;23.50;9.38;;;6.40;98.30;;;;;;5021365;28;20029;-66
2021/12/14 13:35:38;;;;;;;28.67;9.10;;;6.50;98.20;;;;;;5021202;28;20320;-66
2021/12/14 13:38:07;;;;;;;26.80;9.30;;;6.50;98.20;;;;;;5016740;28;20037;-65
2021/12/14 13:40:37;;;;;;;28.52;10.75;;;6.50;98.20;;;;;;5021149;28;20037;-66
2021/12/14 13:43:17;;;;;;;27.25;10.95;;;6.40;98.40;;;;;;5021408;28;20026;-66
2021/12/14 13:45:47;;;;;;;29.88;9.32;;;6.50;98.60;;;;;;5020674;28;20044;-65
2021/12/14 13:48:17;;;;;;;27.02;10.60;;;6.40;98.60;;;;;;5021254;28;20026;-66
2021/12/14 13:50:47;;;;;;;30.30;12.07;;;6.50;98.70;;;;;;5019952;28;20617;-66
2021/12/14 13:53:13;;;;;;;26.48;10.40;;;6.40;98.70;;;;;;5021204;28;20033;-66
2021/12/14 13:55:42;;;;;;;27.07;11.70;;;6.50;98.70;;;;;;5019664;28;20022;-65
2021/12/14 13:58:19;;;;;;;27.67;9.18;;;6.40;98.80;;;;;;5020990;28;20041;-65
2021/12/14 14:00:57;;;;;;;;;;;6.30;98.80;;;;;;5021426;28;20085;-66
2021/12/14 14:03:31;;;;;;;23.95;8.32;;;6.30;98.90;;;;;;5021222;28;19912;-66
2021/12/14 14:06:01;;;;;;;24.08;9.75;;;6.30;98.90;;;;;;5020693;28;20021;-65
2021/12/14 14:08:37;;;;;;;25.13;8.65;;;6.30;98.70;;;;;;5020998;28;20209;-66
2021/12/14 14:11:28;;;;;;;19.58;7.50;;;6.30;98.80;;;;;;5005836;28;20053;-65
2021/12/14 14:14:04;;;;;;;20.50;7.78;;;6.30;98.90;;;;;;5024226;28;20057;-65
2021/12/14 14:16:43;;;;;;;21.50;7.93;;;6.20;98.90;;;;;;5023483;28;20169;-66
2021/12/14 14:19:14;;;;;;;29.10;8.80;;;6.30;98.90;;;;;;5023631;28;20060;-65
2021/12/14 14:21:39;;;;;;;23.17;7.80;;;6.30;98.80;;;;;;5039382;28;20055;-65
2021/12/14 14:24:19;;;;;;;22.30;9.30;;;6.30;98.50;;;;;;5039674;28;20220;-66